createdAt,value
2022-07-26T00:01:01.870Z,17.72
2022-07-26T00:03:30.265Z,17.68
2022-07-26T00:05:59.143Z,17.66
2022-07-26T00:08:27.231Z,17.62
2022-07-26T00:10:55.468Z,17.59
2022-07-26T00:13:23.592Z,17.56
2022-07-26T00:15:52.451Z,17.55
2022-07-26T00:18:20.840Z,17.53
2022-07-26T00:20:48.848Z,17.51
2022-07-26T00:23:19.543Z,17.47
2022-07-26T00:25:47.586Z,17.43
2022-07-26T00:28:15.657Z,17.39
2022-07-26T00:30:44.176Z,17.34
2022-07-26T00:33:13.390Z,17.29
2022-07-26T00:35:41.350Z,17.24
2022-07-26T00:38:09.406Z,17.19
2022-07-26T00:40:37.467Z,17.15
2022-07-26T00:43:05.431Z,17.10
2022-07-26T00:45:33.492Z,17.08
2022-07-26T00:48:01.667Z,17.05
2022-07-26T00:50:29.835Z,17.04
2022-07-26T00:52:58.233Z,17.03
2022-07-26T00:55:26.380Z,17.02
2022-07-26T00:57:54.412Z,16.99
2022-07-26T01:00:27.883Z,16.95
2022-07-26T01:02:57.098Z,16.91
2022-07-26T01:05:25.219Z,16.88
2022-07-26T01:07:53.928Z,16.84
2022-07-26T01:10:22.118Z,16.81
2022-07-26T01:12:50.479Z,16.76
2022-07-26T01:15:19.438Z,16.72
2022-07-26T01:17:47.599Z,16.68
2022-07-26T01:20:16.278Z,16.64
2022-07-26T01:22:44.466Z,16.60
2022-07-26T01:25:12.755Z,16.56
2022-07-26T01:27:40.777Z,16.52
2022-07-26T01:30:12.064Z,16.48
2022-07-26T01:32:40.384Z,16.45
2022-07-26T01:35:09.418Z,16.42
2022-07-26T01:37:37.430Z,16.39
2022-07-26T01:40:07.232Z,16.36
2022-07-26T01:42:35.723Z,16.33
2022-07-26T01:45:04.149Z,16.30
2022-07-26T01:47:32.176Z,16.27
2022-07-26T01:50:00.248Z,16.25
2022-07-26T01:52:28.294Z,16.22
2022-07-26T01:54:56.343Z,16.18
2022-07-26T01:57:24.443Z,16.15
2022-07-26T01:59:52.455Z,16.13
2022-07-26T02:02:20.588Z,16.10
2022-07-26T02:05:01.385Z,16.08
2022-07-26T02:07:32.728Z,16.06
2022-07-26T02:10:00.798Z,16.03
2022-07-26T02:12:28.767Z,16.00
2022-07-26T02:14:56.919Z,15.97
2022-07-26T02:17:25.026Z,15.92
2022-07-26T02:19:52.968Z,15.88
2022-07-26T02:22:20.903Z,15.83
2022-07-26T02:24:49.810Z,15.78
2022-07-26T02:27:19.177Z,15.75
2022-07-26T02:29:47.260Z,15.70
2022-07-26T02:32:15.265Z,15.67
2022-07-26T02:34:43.424Z,15.64
2022-07-26T02:37:11.441Z,15.62
2022-07-26T02:39:39.479Z,15.60
2022-07-26T02:42:07.467Z,15.57
2022-07-26T02:44:36.077Z,15.54
2022-07-26T02:47:04.960Z,15.50
2022-07-26T02:49:33.200Z,15.46
2022-07-26T02:52:01.121Z,15.44
2022-07-26T02:54:29.203Z,15.45
2022-07-26T02:56:57.087Z,15.44
2022-07-26T02:59:25.170Z,15.43
2022-07-26T03:01:53.304Z,15.43
2022-07-26T03:04:21.390Z,15.42
2022-07-26T03:06:49.480Z,15.41
2022-07-26T03:09:17.399Z,15.42
2022-07-26T03:11:45.410Z,15.47
2022-07-26T03:14:13.504Z,15.67
2022-07-26T03:16:41.585Z,15.99
2022-07-26T03:19:09.538Z,16.29
2022-07-26T03:21:37.562Z,16.61
2022-07-26T03:24:06.425Z,17.00
2022-07-26T03:26:34.834Z,17.41
2022-07-26T03:29:02.780Z,17.59
2022-07-26T03:31:30.999Z,17.42
2022-07-26T03:34:03.092Z,17.22
2022-07-26T03:36:31.646Z,17.01
2022-07-26T03:38:59.672Z,16.73
2022-07-26T03:41:27.738Z,16.54
2022-07-26T03:43:55.671Z,16.40
2022-07-26T03:46:24.208Z,16.37
2022-07-26T03:48:52.596Z,16.36
2022-07-26T03:51:20.655Z,16.37
2022-07-26T03:53:48.852Z,16.37
2022-07-26T03:56:28.799Z,16.36
2022-07-26T03:58:59.855Z,16.37
2022-07-26T04:01:28.542Z,16.36
2022-07-26T04:03:56.587Z,16.36
2022-07-26T04:06:24.587Z,16.37
2022-07-26T04:08:52.960Z,16.40
2022-07-26T04:11:21.353Z,16.44
2022-07-26T04:13:49.456Z,16.47
2022-07-26T04:16:17.426Z,16.52
2022-07-26T04:18:45.628Z,16.56
2022-07-26T04:21:13.709Z,16.61
2022-07-26T04:23:41.939Z,16.64
2022-07-26T04:26:09.920Z,16.69
2022-07-26T04:28:37.955Z,16.72
2022-07-26T04:31:06.221Z,16.77
2022-07-26T04:33:34.838Z,16.82
2022-07-26T04:36:03.601Z,16.88
2022-07-26T04:38:32.089Z,16.93
2022-07-26T04:41:00.180Z,16.96
2022-07-26T04:43:28.249Z,17.02
2022-07-26T04:45:57.700Z,17.09
2022-07-26T04:48:25.991Z,17.15
2022-07-26T04:50:54.875Z,17.22
2022-07-26T04:53:22.876Z,17.32
2022-07-26T04:55:50.852Z,17.43
2022-07-26T04:58:19.201Z,17.51
2022-07-26T05:01:08.978Z,17.62
2022-07-26T05:03:36.033Z,17.73
2022-07-26T05:06:04.457Z,17.82
2022-07-26T05:08:32.901Z,17.89
2022-07-26T05:11:01.116Z,17.95
2022-07-26T05:13:30.936Z,18.04
2022-07-26T05:16:00.175Z,18.13
2022-07-26T05:18:31.496Z,18.21
2022-07-26T05:21:00.112Z,18.30
2022-07-26T05:23:28.203Z,18.41
2022-07-26T05:25:56.550Z,18.61
2022-07-26T05:28:24.886Z,19.19
2022-07-26T05:30:53.131Z,19.98
2022-07-26T05:33:21.400Z,20.78
2022-07-26T05:35:49.728Z,21.59
2022-07-26T05:38:17.657Z,22.30
2022-07-26T05:40:50.321Z,22.95
2022-07-26T05:43:19.325Z,23.60
2022-07-26T05:45:47.626Z,24.24
2022-07-26T05:48:15.799Z,24.73
2022-07-26T05:50:44.693Z,25.20
2022-07-26T05:53:12.979Z,25.59
2022-07-26T05:55:41.278Z,25.96
2022-07-26T05:58:09.953Z,26.38
2022-07-26T06:00:38.051Z,26.77
2022-07-26T06:03:24.318Z,27.12
2022-07-26T06:05:58.047Z,27.27
2022-07-26T06:08:27.543Z,27.51
2022-07-26T06:10:56.437Z,27.84
2022-07-26T06:13:24.690Z,28.19
2022-07-26T06:15:52.887Z,28.44
2022-07-26T06:18:21.074Z,28.52
2022-07-26T06:20:50.508Z,28.51
2022-07-26T06:23:30.855Z,28.39
2022-07-26T06:26:03.976Z,28.39
2022-07-26T06:28:32.851Z,28.34
2022-07-26T06:31:01.380Z,28.37
2022-07-26T06:33:29.731Z,28.38
2022-07-26T06:35:58.324Z,28.29
2022-07-26T06:38:26.820Z,28.16
2022-07-26T06:40:54.879Z,28.03
2022-07-26T06:43:23.052Z,27.77
2022-07-26T06:45:51.354Z,27.80
2022-07-26T06:48:19.773Z,27.88
2022-07-26T06:50:48.356Z,27.84
2022-07-26T06:53:16.474Z,27.73
2022-07-26T06:55:44.911Z,27.69
2022-07-26T06:58:14.000Z,27.74
2022-07-26T07:00:42.290Z,27.93
2022-07-26T07:03:10.537Z,27.93
2022-07-26T07:05:38.683Z,27.74
2022-07-26T07:08:07.299Z,27.79
2022-07-26T07:10:35.975Z,27.91
2022-07-26T07:13:04.409Z,27.91
2022-07-26T07:15:32.770Z,27.94
2022-07-26T07:18:01.242Z,28.14
2022-07-26T07:20:29.581Z,28.41
2022-07-26T07:22:57.650Z,28.44
2022-07-26T07:25:30.362Z,28.36
2022-07-26T07:28:00.202Z,28.59
2022-07-26T07:30:28.566Z,28.52
2022-07-26T07:32:56.991Z,28.57
2022-07-26T07:35:25.212Z,28.59
2022-07-26T07:38:00.627Z,28.47
2022-07-26T07:40:30.608Z,28.53
2022-07-26T07:42:58.982Z,28.67
2022-07-26T07:45:27.311Z,28.89
2022-07-26T07:47:55.534Z,29.04
2022-07-26T07:50:27.086Z,29.22
2022-07-26T07:52:58.062Z,29.54
2022-07-26T07:55:46.068Z,29.77
2022-07-26T07:58:20.071Z,30.01
2022-07-26T08:00:48.768Z,30.15
2022-07-26T08:03:18.777Z,30.14
2022-07-26T08:05:49.872Z,30.29
2022-07-26T08:08:22.449Z,30.10
2022-07-26T08:10:53.111Z,30.28
2022-07-26T08:13:23.226Z,30.45
2022-07-26T08:15:53.395Z,30.47
2022-07-26T08:18:23.558Z,30.42
2022-07-26T08:20:54.076Z,30.29
2022-07-26T08:23:22.827Z,30.28
2022-07-26T08:26:03.205Z,30.27
2022-07-26T08:28:58.362Z,30.29
2022-07-26T08:31:22.139Z,30.33
2022-07-26T08:33:50.531Z,30.47
2022-07-26T08:36:19.103Z,30.60
2022-07-26T08:38:48.401Z,30.67
2022-07-26T08:41:18.701Z,30.75
2022-07-26T08:43:51.694Z,31.07
2022-07-26T08:46:27.523Z,31.39
2022-07-26T08:48:57.288Z,31.44
2022-07-26T08:51:26.904Z,31.42
2022-07-26T08:54:04.426Z,31.49
2022-07-26T08:56:41.065Z,31.46
2022-07-26T08:59:20.170Z,31.39
2022-07-26T09:02:06.263Z,31.28
2022-07-26T09:04:43.577Z,31.19
2022-07-26T09:07:15.769Z,31.21
2022-07-26T09:10:02.681Z,31.28
2022-07-26T09:12:32.468Z,31.31
2022-07-26T09:15:01.897Z,31.49
2022-07-26T09:17:42.115Z,31.63
2022-07-26T09:20:11.908Z,31.50
2022-07-26T09:22:56.689Z,31.26
2022-07-26T09:25:25.557Z,31.01
2022-07-26T09:27:54.140Z,30.93
2022-07-26T09:30:22.252Z,30.97
2022-07-26T09:33:16.645Z,30.86
2022-07-26T09:36:02.297Z,30.66
2022-07-26T09:38:49.069Z,30.63
2022-07-26T09:41:35.326Z,30.70
2022-07-26T09:44:06.177Z,30.61
2022-07-26T09:46:36.007Z,30.39
2022-07-26T09:49:23.187Z,30.47
2022-07-26T09:51:53.690Z,30.62
2022-07-26T09:54:33.862Z,30.71
2022-07-26T09:57:03.023Z,30.93
2022-07-26T09:59:31.480Z,31.15
2022-07-26T10:02:01.138Z,31.34
2022-07-26T10:04:29.443Z,31.47
2022-07-26T10:07:04.296Z,31.12
2022-07-26T10:09:36.121Z,31.05
2022-07-26T10:12:09.004Z,31.19
2022-07-26T10:14:41.172Z,31.09
2022-07-26T10:17:31.426Z,31.12
2022-07-26T10:20:10.730Z,31.20
2022-07-26T10:22:49.196Z,31.36
2022-07-26T10:25:17.080Z,31.37
2022-07-26T10:27:50.130Z,31.34
2022-07-26T10:30:24.018Z,31.28
2022-07-26T10:32:54.973Z,31.16
2022-07-26T10:35:39.000Z,31.16
2022-07-26T10:38:08.525Z,31.17
2022-07-26T10:40:39.310Z,31.06
2022-07-26T10:46:16.498Z,31.18
2022-07-26T10:48:59.781Z,31.37
2022-07-26T10:51:33.997Z,31.41
2022-07-26T10:54:05.104Z,31.36
2022-07-26T10:56:34.335Z,31.36
2022-07-26T10:59:04.617Z,31.26
2022-07-26T11:01:37.865Z,31.21
2022-07-26T11:04:17.747Z,31.30
2022-07-26T11:06:46.586Z,31.35
2022-07-26T11:09:16.158Z,31.43
2022-07-26T11:11:47.127Z,31.57
2022-07-26T11:14:18.283Z,31.61
2022-07-26T11:16:48.907Z,31.40
2022-07-26T11:19:24.926Z,31.23
2022-07-26T11:21:55.843Z,31.29
2022-07-26T11:24:24.269Z,31.30
2022-07-26T11:26:53.165Z,31.50
2022-07-26T11:29:38.094Z,31.55
2022-07-26T11:32:18.683Z,31.52
2022-07-26T11:34:47.406Z,31.57
2022-07-26T11:37:18.134Z,31.75
2022-07-26T11:39:47.404Z,31.99
2022-07-26T11:42:19.697Z,32.15
2022-07-26T11:44:49.194Z,32.26
2022-07-26T11:47:25.580Z,32.37
2022-07-26T11:52:43.394Z,31.99
2022-07-26T11:55:12.097Z,31.80
2022-07-26T11:57:41.489Z,31.81
2022-07-26T12:00:10.255Z,32.04
2022-07-26T12:02:41.413Z,32.17
2022-07-26T12:05:20.555Z,31.88
2022-07-26T12:07:56.785Z,32.01
2022-07-26T12:10:25.426Z,32.10
2022-07-26T12:13:14.157Z,32.16
2022-07-26T12:15:53.141Z,32.18
2022-07-26T12:18:34.156Z,32.09
2022-07-26T12:21:09.733Z,32.06
2022-07-26T12:23:50.176Z,31.83
2022-07-26T12:26:30.911Z,31.71
2022-07-26T12:29:21.849Z,31.84
2022-07-26T12:32:24.059Z,31.98
2022-07-26T12:34:59.816Z,32.06
2022-07-26T12:37:40.058Z,32.15
2022-07-26T12:40:23.797Z,32.24
2022-07-26T12:42:53.780Z,32.32
2022-07-26T12:45:28.343Z,32.39
2022-07-26T12:47:58.482Z,32.51
2022-07-26T12:50:29.262Z,32.55
2022-07-26T12:53:15.692Z,32.61
2022-07-26T12:55:43.852Z,32.64
2022-07-26T12:58:11.883Z,32.58
2022-07-26T13:00:40.438Z,32.47
2022-07-26T13:03:08.843Z,32.48
2022-07-26T13:05:36.850Z,32.52
2022-07-26T13:08:05.334Z,32.74
2022-07-26T13:10:35.261Z,32.92
2022-07-26T13:13:04.423Z,32.92
2022-07-26T13:15:36.475Z,32.69
2022-07-26T13:18:07.771Z,32.56
2022-07-26T13:20:40.076Z,32.58
2022-07-26T13:23:12.711Z,32.54
2022-07-26T13:25:42.577Z,32.64
2022-07-26T13:28:11.785Z,32.69
2022-07-26T13:30:43.294Z,32.45
2022-07-26T13:33:12.973Z,32.44
2022-07-26T13:35:42.813Z,32.47
2022-07-26T13:38:11.322Z,32.59
2022-07-26T13:40:39.370Z,32.73
2022-07-26T13:43:07.616Z,32.90
2022-07-26T13:45:35.886Z,32.91
2022-07-26T13:48:04.633Z,32.93
2022-07-26T13:50:32.780Z,33.05
2022-07-26T13:53:01.402Z,33.12
2022-07-26T13:55:29.434Z,33.05
2022-07-26T13:57:58.359Z,32.98
2022-07-26T14:00:27.774Z,33.04
2022-07-26T14:02:58.215Z,33.11
2022-07-26T14:05:28.413Z,33.07
2022-07-26T14:07:57.161Z,32.96
2022-07-26T14:10:26.235Z,32.86
2022-07-26T14:12:54.538Z,32.80
2022-07-26T14:15:23.666Z,32.77
2022-07-26T14:17:52.848Z,32.78
2022-07-26T14:20:22.104Z,32.71
2022-07-26T14:22:56.459Z,32.67
2022-07-26T14:25:26.453Z,32.72
2022-07-26T14:27:55.636Z,32.74
2022-07-26T14:30:24.222Z,32.72
2022-07-26T14:32:52.433Z,32.81
2022-07-26T14:35:20.769Z,32.79
2022-07-26T14:37:48.955Z,32.88
2022-07-26T14:40:18.231Z,32.98
2022-07-26T14:42:46.985Z,32.89
2022-07-26T14:45:16.393Z,32.84
2022-07-26T14:47:44.858Z,32.93
2022-07-26T14:50:15.451Z,32.99
2022-07-26T14:52:48.700Z,32.98
2022-07-26T14:55:21.662Z,32.98
2022-07-26T14:57:53.125Z,32.90
2022-07-26T15:00:21.613Z,32.90
2022-07-26T15:02:50.433Z,32.99
2022-07-26T15:05:19.274Z,33.14
2022-07-26T15:07:48.096Z,32.93
2022-07-26T15:10:16.365Z,32.62
2022-07-26T15:12:44.779Z,32.53
2022-07-26T15:15:13.310Z,32.53
2022-07-26T15:17:41.817Z,32.68
2022-07-26T15:20:09.822Z,32.81
2022-07-26T15:22:37.876Z,32.76
2022-07-26T15:25:06.983Z,32.75
2022-07-26T15:27:35.154Z,32.80
2022-07-26T15:30:09.061Z,32.82
2022-07-26T15:32:42.566Z,32.81
2022-07-26T15:35:14.511Z,32.90
2022-07-26T15:37:44.085Z,33.00
2022-07-26T15:40:13.046Z,33.12
2022-07-26T15:42:44.262Z,33.12
2022-07-26T15:45:13.970Z,33.19
2022-07-26T15:48:08.338Z,33.32
2022-07-26T15:50:31.058Z,33.35
2022-07-26T15:52:59.181Z,33.21
2022-07-26T15:55:27.543Z,33.09
2022-07-26T15:57:55.795Z,33.04
2022-07-26T16:00:24.629Z,33.02
2022-07-26T16:02:53.494Z,33.05
2022-07-26T16:05:21.526Z,32.98
2022-07-26T16:07:49.929Z,32.97
2022-07-26T16:10:18.577Z,33.01
2022-07-26T16:12:46.688Z,32.99
2022-07-26T16:15:15.348Z,32.86
2022-07-26T16:17:43.616Z,32.73
2022-07-26T16:20:11.871Z,32.73
2022-07-26T16:22:41.242Z,32.68
2022-07-26T16:25:12.890Z,32.61
2022-07-26T16:27:43.182Z,32.53
2022-07-26T16:30:13.446Z,32.45
2022-07-26T16:32:42.197Z,32.35
2022-07-26T16:35:10.575Z,32.23
2022-07-26T16:37:38.795Z,32.17
2022-07-26T16:40:08.073Z,32.08
2022-07-26T16:42:36.199Z,32.08
2022-07-26T16:45:04.732Z,32.08
2022-07-26T16:47:33.239Z,31.99
2022-07-26T16:50:01.672Z,31.97
2022-07-26T16:52:29.826Z,31.90
2022-07-26T16:54:58.108Z,31.85
2022-07-26T16:57:27.084Z,31.84
2022-07-26T16:59:55.219Z,31.82
2022-07-26T17:02:23.326Z,31.76
2022-07-26T17:04:52.301Z,31.70
2022-07-26T17:07:25.351Z,31.66
2022-07-26T17:09:56.086Z,31.67
2022-07-26T17:12:25.172Z,31.67
2022-07-26T17:14:53.366Z,31.64
2022-07-26T17:17:21.629Z,31.57
2022-07-26T17:19:50.038Z,31.51
2022-07-26T17:22:18.415Z,31.54
2022-07-26T17:24:48.104Z,31.44
2022-07-26T17:27:17.011Z,31.34
2022-07-26T17:29:45.252Z,31.25
2022-07-26T17:32:13.649Z,31.19
2022-07-26T17:34:42.080Z,31.10
2022-07-26T17:37:10.605Z,30.98
2022-07-26T17:39:52.568Z,30.83
2022-07-26T17:42:22.213Z,30.68
2022-07-26T17:44:51.150Z,30.53
2022-07-26T17:47:29.175Z,30.42
2022-07-26T17:52:52.291Z,30.08
2022-07-26T17:55:22.064Z,29.94
2022-07-26T17:57:51.422Z,29.85
2022-07-26T18:00:21.231Z,29.74
2022-07-26T18:02:49.593Z,29.62
2022-07-26T18:05:19.421Z,29.50
2022-07-26T18:07:47.806Z,29.36
2022-07-26T18:10:16.037Z,29.24
2022-07-26T18:12:44.604Z,29.09
2022-07-26T18:15:13.089Z,28.97
2022-07-26T18:17:41.720Z,28.84
2022-07-26T18:20:10.859Z,28.72
2022-07-26T18:22:40.240Z,28.60
2022-07-26T18:25:09.090Z,28.49
2022-07-26T18:27:37.289Z,28.36
2022-07-26T18:30:06.522Z,28.21
2022-07-26T18:32:35.257Z,28.06
2022-07-26T18:35:04.015Z,27.88
2022-07-26T18:37:32.375Z,27.69
2022-07-26T18:40:00.925Z,27.52
2022-07-26T18:42:28.980Z,27.35
2022-07-26T18:44:57.302Z,27.19
2022-07-26T18:47:25.365Z,27.02
2022-07-26T18:49:53.467Z,26.84
2022-07-26T18:52:28.657Z,26.68
2022-07-26T18:55:07.761Z,26.52
2022-07-26T18:57:37.066Z,26.35
2022-07-26T19:00:07.889Z,26.20
2022-07-26T19:02:35.868Z,26.03
2022-07-26T19:05:05.249Z,25.87
2022-07-26T19:07:33.560Z,25.73
2022-07-26T19:10:01.578Z,25.60
2022-07-26T19:12:29.840Z,25.49
2022-07-26T19:15:00.036Z,25.41
2022-07-26T19:17:30.128Z,25.31
2022-07-26T19:20:00.010Z,25.24
2022-07-26T19:22:29.401Z,25.17
2022-07-26T19:24:58.128Z,25.10
2022-07-26T19:27:28.089Z,25.07
2022-07-26T19:29:57.202Z,25.05
2022-07-26T19:32:27.199Z,25.03
2022-07-26T19:34:58.474Z,25.00
2022-07-26T19:37:26.548Z,24.97
2022-07-26T19:39:56.280Z,24.93
2022-07-26T19:42:24.439Z,24.89
2022-07-26T19:44:52.569Z,24.84
2022-07-26T19:47:20.731Z,24.79
2022-07-26T19:49:48.854Z,24.73
2022-07-26T19:52:16.928Z,24.69
2022-07-26T19:54:44.892Z,24.64
2022-07-26T19:57:13.465Z,24.59
2022-07-26T19:59:41.447Z,24.53
2022-07-26T20:02:09.522Z,24.48
2022-07-26T20:04:38.521Z,24.43
2022-07-26T20:07:08.889Z,24.35
2022-07-26T20:09:36.758Z,24.25
2022-07-26T20:12:05.283Z,24.17
2022-07-26T20:14:33.482Z,24.10
2022-07-26T20:17:01.701Z,24.06
2022-07-26T20:19:29.725Z,24.01
2022-07-26T20:22:00.364Z,23.97
2022-07-26T20:24:28.490Z,23.93
2022-07-26T20:26:56.607Z,23.88
2022-07-26T20:29:24.795Z,23.84
2022-07-26T20:31:52.846Z,23.81
2022-07-26T20:34:20.780Z,23.78
2022-07-26T20:36:54.014Z,23.73
2022-07-26T20:39:22.152Z,23.69
2022-07-26T20:41:50.128Z,23.66
2022-07-26T20:44:20.902Z,23.63
2022-07-26T20:46:52.090Z,23.60
2022-07-26T20:49:20.151Z,23.58
2022-07-26T20:51:48.298Z,23.55
2022-07-26T20:54:16.476Z,23.53
2022-07-26T20:56:44.417Z,23.50
2022-07-26T20:59:12.809Z,23.49
2022-07-26T21:01:41.202Z,23.47
2022-07-26T21:04:12.440Z,23.47
2022-07-26T21:06:40.518Z,23.46
2022-07-26T21:09:08.823Z,23.44
2022-07-26T21:11:39.360Z,23.41
2022-07-26T21:14:07.422Z,23.38
2022-07-26T21:16:37.115Z,23.37
2022-07-26T21:19:06.059Z,23.37
2022-07-26T21:21:34.802Z,23.37
2022-07-26T21:24:03.227Z,23.34
2022-07-26T21:26:31.295Z,23.30
2022-07-26T21:28:59.278Z,23.25
2022-07-26T21:31:27.336Z,23.23
2022-07-26T21:33:55.502Z,23.21
2022-07-26T21:36:23.563Z,23.19
2022-07-26T21:38:51.747Z,23.17
2022-07-26T21:41:20.319Z,23.16
2022-07-26T21:43:48.290Z,23.13
2022-07-26T21:46:16.429Z,23.11
2022-07-26T21:48:44.777Z,23.10
2022-07-26T21:51:13.004Z,23.09
2022-07-26T21:53:41.141Z,23.07
2022-07-26T21:56:09.344Z,23.03
2022-07-26T21:58:38.311Z,23.01
2022-07-26T22:01:08.340Z,22.99
2022-07-26T22:03:37.396Z,22.98
2022-07-26T22:06:06.628Z,22.96
2022-07-26T22:08:35.157Z,22.94
2022-07-26T22:11:04.733Z,22.92
2022-07-26T22:13:32.741Z,22.90
2022-07-26T22:16:01.083Z,22.88
2022-07-26T22:18:29.339Z,22.85
2022-07-26T22:20:57.495Z,22.82
2022-07-26T22:23:30.678Z,22.79
2022-07-26T22:26:02.010Z,22.77
2022-07-26T22:28:31.568Z,22.75
2022-07-26T22:30:59.865Z,22.74
2022-07-26T22:33:27.883Z,22.72
2022-07-26T22:35:56.195Z,22.69
2022-07-26T22:38:24.250Z,22.67
2022-07-26T22:40:52.287Z,22.65
2022-07-26T22:43:20.399Z,22.63
2022-07-26T22:45:48.448Z,22.61
2022-07-26T22:48:16.531Z,22.58
2022-07-26T22:50:44.598Z,22.56
2022-07-26T22:53:12.607Z,22.52
2022-07-26T22:55:40.698Z,22.50
2022-07-26T22:58:08.901Z,22.47
2022-07-26T23:00:37.066Z,22.45
2022-07-26T23:03:07.146Z,22.45
2022-07-26T23:05:46.138Z,22.44
2022-07-26T23:11:04.933Z,22.39
2022-07-26T23:13:33.004Z,22.37
2022-07-26T23:16:01.919Z,22.35
2022-07-26T23:18:31.179Z,22.34
2022-07-26T23:20:59.477Z,22.32
2022-07-26T23:23:29.738Z,22.32
2022-07-26T23:25:59.524Z,22.31
2022-07-26T23:28:37.647Z,22.29
2022-07-26T23:31:11.460Z,22.28
2022-07-26T23:33:52.813Z,22.29
2022-07-26T23:36:27.711Z,22.30
2022-07-26T23:38:57.494Z,22.30
2022-07-26T23:41:27.084Z,22.30
2022-07-26T23:43:56.190Z,22.31
2022-07-26T23:46:25.222Z,22.32
2022-07-26T23:48:54.724Z,22.33
2022-07-26T23:51:23.260Z,22.35
2022-07-26T23:53:52.312Z,22.37
2022-07-26T23:56:20.928Z,22.41
2022-07-26T23:58:49.742Z,22.44
